Time;durP1;ratioP1;P1;durP2;ratioP2;P2;SDS_P1;SDS_P2;PMS_P1;PMS_P2;Temp;Humidity;BMP_temperature;BMP_pressure;BME280_temperature;BME280_humidity;BME280_pressure;Samples;Min_cycle;Max_cycle;Signal;HPM_P1;HPM_P2
2022/11/14 00:00:12;;;;;;;25.80;17.40;;;;;2.70;100905.00;;;;10465196;28;20687;-76
2022/11/14 00:05:38;;;;;;;23.90;16.60;;;;;2.70;100902.00;;;;10465210;28;20304;-75
2022/11/14 00:10:59;;;;;;;23.57;16.43;;;;;2.70;100898.00;;;;10481857;28;20262;-76
2022/11/14 00:16:20;;;;;;;24.50;15.53;;;;;2.70;100893.00;;;;10451977;28;20198;-76
2022/11/14 00:21:40;;;;;;;23.47;15.43;;;;;2.60;100896.00;;;;10425941;28;20201;-75
2022/11/14 00:27:01;;;;;;;20.83;14.83;;;;;2.60;100892.00;;;;10441424;28;20185;-76
2022/11/14 00:32:21;;;;;;;25.37;15.90;;;;;2.60;100889.00;;;;10460489;28;20208;-75
2022/11/14 00:37:42;;;;;;;20.33;15.13;;;;;2.60;100889.00;;;;10429074;28;20202;-76
2022/11/14 00:43:02;;;;;;;24.23;15.83;;;;;2.60;100887.00;;;;10422622;28;20202;-76
2022/11/14 00:48:23;;;;;;;19.97;14.60;;;;;2.50;100879.00;;;;10455548;28;20198;-76
2022/11/14 00:53:43;;;;;;;18.57;14.17;;;;;2.50;100880.00;;;;10438771;28;20286;-76
2022/11/14 00:59:03;;;;;;;21.80;13.70;;;;;2.40;100867.00;;;;10438364;28;20268;-76
2022/11/14 01:04:24;;;;;;;21.33;14.13;;;;;2.50;100857.00;;;;10438299;28;20308;-75
2022/11/14 01:09:44;;;;;;;19.03;13.57;;;;;2.40;100854.00;;;;10437216;28;20193;-75
2022/11/14 01:15:05;;;;;;;22.03;14.20;;;;;2.30;100835.00;;;;10443802;28;20193;-75
2022/11/14 01:20:26;;;;;;;19.30;13.20;;;;;2.30;100848.00;;;;10496581;28;20579;-75
2022/11/14 01:25:46;;;;;;;20.40;12.67;;;;;2.10;100832.00;;;;10478604;28;20196;-75
2022/11/14 01:31:13;;;;;;;19.00;11.80;;;;;2.10;100828.00;;;;10461429;28;20655;-75
2022/11/14 01:36:34;;;;;;;18.47;11.87;;;;;2.00;100822.00;;;;10425202;28;20206;-75
2022/11/14 01:41:54;;;;;;;17.90;11.63;;;;;1.90;100817.00;;;;10456416;28;20182;-75
2022/11/14 01:47:19;;;;;;;17.40;11.87;;;;;1.90;100815.00;;;;10452019;28;20193;-75
2022/11/14 01:52:40;;;;;;;18.13;11.67;;;;;1.90;100811.00;;;;10447102;28;20212;-75
2022/11/14 01:58:02;;;;;;;19.03;12.27;;;;;1.80;100807.00;;;;10463985;28;20557;-76
2022/11/14 02:03:23;;;;;;;19.73;12.20;;;;;1.80;100805.00;;;;10474896;28;20182;-75
2022/11/14 02:08:44;;;;;;;18.57;12.27;;;;;1.80;100792.00;;;;10421732;28;20217;-76
2022/11/14 02:14:05;;;;;;;21.57;12.70;;;;;1.70;100787.00;;;;10435447;28;20278;-76
2022/11/14 02:19:59;;;;;;;18.17;12.87;;;;;1.70;100786.00;;;;10437780;28;20248;-76
2022/11/14 02:25:24;;;;;;;16.23;11.63;;;;;1.70;100775.00;;;;10424554;28;20213;-75
2022/11/14 02:30:45;;;;;;;18.13;12.57;;;;;1.70;100768.00;;;;10420757;28;20552;-75
2022/11/14 02:36:06;;;;;;;19.20;11.90;;;;;1.60;100776.00;;;;10437144;28;20198;-75
2022/11/14 02:41:26;;;;;;;18.67;12.00;;;;;1.60;100762.00;;;;10434587;28;20277;-75
2022/11/14 02:46:47;;;;;;;20.70;12.40;;;;;1.50;100755.00;;;;10434225;28;20257;-76
2022/11/14 02:52:07;;;;;;;18.53;11.47;;;;;1.50;100749.00;;;;10450906;28;20587;-76
2022/11/14 02:57:28;;;;;;;17.40;12.00;;;;;1.40;100745.00;;;;10451538;28;20205;-75
2022/11/14 03:02:48;;;;;;;16.27;12.10;;;;;1.40;100742.00;;;;10436628;28;20186;-75
2022/11/14 03:08:09;;;;;;;17.50;11.00;;;;;1.30;100734.00;;;;10420032;28;20204;-75
2022/11/14 03:13:30;;;;;;;17.73;12.00;;;;;1.30;100713.00;;;;10433806;28;20178;-75
2022/11/14 03:18:51;;;;;;;17.77;11.83;;;;;1.30;100726.00;;;;10474894;28;20201;-76
2022/11/14 03:24:11;;;;;;;18.20;12.13;;;;;1.30;100733.00;;;;10444334;28;20241;-75
2022/11/14 03:29:31;;;;;;;20.20;13.13;;;;;1.30;100740.00;;;;10458227;28;20178;-75
2022/11/14 03:34:52;;;;;;;22.37;13.90;;;;;1.40;100751.00;;;;10449032;28;20193;-76
2022/11/14 03:40:12;;;;;;;17.67;11.30;;;;;1.40;100745.00;;;;10485731;28;20212;-76
2022/11/14 03:45:32;;;;;;;19.40;12.30;;;;;1.30;100749.00;;;;10482862;28;20193;-75
2022/11/14 03:50:53;;;;;;;21.67;12.83;;;;;1.30;100745.00;;;;10468607;28;20177;-75
2022/11/14 03:56:14;;;;;;;18.17;11.67;;;;;1.30;100736.00;;;;10468067;28;20220;-75
2022/11/14 04:01:34;;;;;;;16.50;11.70;;;;;1.20;100729.00;;;;10439668;28;20560;-75
2022/11/14 04:06:55;;;;;;;19.23;12.37;;;;;1.20;100720.00;;;;10432278;28;20226;-75
2022/11/14 04:12:15;;;;;;;18.63;10.93;;;;;1.10;100708.00;;;;10442507;28;20653;-76
2022/11/14 04:17:36;;;;;;;16.77;11.80;;;;;1.00;100712.00;;;;10467631;28;20194;-76
2022/11/14 04:22:59;;;;;;;21.23;13.43;;;;;1.00;100712.00;;;;10484399;28;20200;-76
2022/11/14 04:28:19;;;;;;;18.47;12.63;;;;;1.10;100709.00;;;;10481249;28;20190;-76
2022/11/14 04:33:40;;;;;;;19.60;12.93;;;;;1.00;100705.00;;;;10455886;28;20351;-76
2022/11/14 04:39:00;;;;;;;18.90;12.70;;;;;1.00;100699.00;;;;10439208;28;20765;-75
2022/11/14 04:44:21;;;;;;;16.80;11.73;;;;;0.90;100683.00;;;;10438658;28;20174;-76
2022/11/14 04:49:41;;;;;;;20.60;12.73;;;;;0.80;100687.00;;;;10439005;28;20316;-76
2022/11/14 04:55:02;;;;;;;18.63;12.57;;;;;0.70;100681.00;;;;10438775;28;20585;-75
2022/11/14 05:00:23;;;;;;;17.37;12.37;;;;;0.70;100675.00;;;;10438313;28;20339;-76
2022/11/14 05:05:44;;;;;;;19.97;13.27;;;;;0.60;100665.00;;;;10446129;28;20217;-76
2022/11/14 05:11:04;;;;;;;18.53;12.67;;;;;0.60;100659.00;;;;10478924;28;20698;-76
2022/11/14 05:16:24;;;;;;;19.80;12.20;;;;;0.50;100677.00;;;;10465746;28;20249;-76
2022/11/14 05:21:45;;;;;;;18.63;12.43;;;;;0.50;100680.00;;;;10464771;28;20544;-76
2022/11/14 05:27:06;;;;;;;15.90;11.30;;;;;0.50;100672.00;;;;10496578;28;20193;-76
2022/11/14 05:32:26;;;;;;;19.27;11.67;;;;;0.50;100675.00;;;;10480675;28;20207;-76
2022/11/14 05:37:46;;;;;;;18.03;12.40;;;;;0.50;100678.00;;;;10436678;28;20217;-76
2022/11/14 05:43:07;;;;;;;18.87;12.27;;;;;0.50;100674.00;;;;10472994;28;20272;-76
2022/11/14 05:48:28;;;;;;;18.77;11.17;;;;;0.40;100672.00;;;;10477976;28;20223;-76
2022/11/14 05:53:50;;;;;;;18.80;11.40;;;;;0.40;100664.00;;;;10477567;28;20286;-76
2022/11/14 05:59:10;;;;;;;19.07;12.00;;;;;0.40;100664.00;;;;10446551;28;20232;-76
2022/11/14 06:04:31;;;;;;;17.63;11.27;;;;;0.30;100664.00;;;;10448868;28;20296;-76
2022/11/14 06:09:51;;;;;;;16.67;11.77;;;;;0.30;100658.00;;;;10459592;28;20191;-76
2022/11/14 06:15:12;;;;;;;15.87;10.57;;;;;0.30;100655.00;;;;10459366;28;20181;-76
2022/11/14 06:20:32;;;;;;;20.67;13.20;;;;;0.30;100649.00;;;;10462641;28;20571;-76
2022/11/14 06:26:07;;;;;;;17.10;12.00;;;;;0.30;100663.00;;;;10492856;28;20213;-76
2022/11/14 06:31:27;;;;;;;16.90;10.93;;;;;0.40;100662.00;;;;10445286;28;20571;-76
2022/11/14 06:36:47;;;;;;;17.37;11.70;;;;;0.30;100655.00;;;;10448310;28;20216;-76
2022/11/14 06:42:08;;;;;;;21.27;11.33;;;;;0.30;100660.00;;;;10437332;28;20186;-76
2022/11/14 06:47:28;;;;;;;18.80;11.20;;;;;0.30;100667.00;;;;10440884;28;20212;-76
2022/11/14 06:52:49;;;;;;;20.37;10.57;;;;;0.30;100664.00;;;;10434063;28;20629;-76
2022/11/14 06:58:09;;;;;;;19.33;10.57;;;;;0.40;100663.00;;;;10434079;28;20194;-76
2022/11/14 07:03:31;;;;;;;16.80;10.47;;;;;0.40;100666.00;;;;10434239;28;20189;-76
2022/11/14 07:08:52;;;;;;;16.80;10.47;;;;;0.40;100675.00;;;;10450952;28;20285;-76
2022/11/14 07:14:13;;;;;;;19.27;11.60;;;;;0.60;100678.00;;;;10433756;28;20197;-75
2022/11/14 07:19:33;;;;;;;17.87;11.00;;;;;0.90;100675.00;;;;10452204;28;20224;-75
2022/11/14 07:24:54;;;;;;;18.67;10.43;;;;;1.00;100671.00;;;;10454913;28;20262;-75
2022/11/14 07:30:14;;;;;;;15.87;9.47;;;;;1.10;100678.00;;;;10418352;28;20201;-75
2022/11/14 07:35:35;;;;;;;16.60;9.47;;;;;1.10;100664.00;;;;10435614;28;20201;-75
2022/11/14 07:41:01;;;;;;;19.40;10.47;;;;;1.30;100653.00;;;;10423030;28;20206;-75
2022/11/14 07:46:21;;;;;;;18.07;11.17;;;;;1.50;100664.00;;;;10414542;28;20213;-75
2022/11/14 07:51:42;;;;;;;15.60;9.90;;;;;1.70;100656.00;;;;10417989;28;20186;-75
2022/11/14 07:57:02;;;;;;;17.60;12.27;;;;;1.90;100658.00;;;;10453976;28;20572;-75
2022/11/14 08:02:23;;;;;;;19.30;12.70;;;;;2.20;100655.00;;;;10473188;28;20580;-75
2022/11/14 08:07:43;;;;;;;27.60;15.60;;;;;2.40;100649.00;;;;10475063;28;20283;-75
2022/11/14 08:13:05;;;;;;;26.77;17.73;;;;;2.50;100632.00;;;;10441249;28;20202;-75
2022/11/14 08:18:45;;;;;;;23.10;14.70;;;;;2.70;100630.00;;;;10473478;28;20202;-74
2022/11/14 08:24:06;;;;;;;23.43;14.23;;;;;3.00;100626.00;;;;10466245;28;20201;-76
2022/11/14 08:29:26;;;;;;;23.23;15.20;;;;;3.40;100614.00;;;;10450178;28;20216;-76
2022/11/14 08:34:47;;;;;;;27.37;19.23;;;;;4.00;100619.00;;;;10469614;28;20202;-76
2022/11/14 08:40:09;;;;;;;35.83;23.33;;;;;4.80;100607.00;;;;10425043;28;20198;-76
2022/11/14 08:45:29;;;;;;;29.50;21.03;;;;;5.50;100605.00;;;;10438826;28;20194;-76
2022/11/14 08:50:50;;;;;;;40.27;26.60;;;;;6.10;100607.00;;;;10441594;28;20181;-76
2022/11/14 08:56:11;;;;;;;35.47;23.13;;;;;6.80;100600.00;;;;10427156;28;20220;-76
2022/11/14 09:01:31;;;;;;;33.00;22.13;;;;;7.40;100601.00;;;;10466461;28;20268;-76
2022/11/14 09:06:52;;;;;;;22.63;16.00;;;;;8.00;100595.00;;;;10481829;28;20210;-76
2022/11/14 09:12:13;;;;;;;18.30;11.63;;;;;8.30;100576.00;;;;10437350;28;20268;-77
2022/11/14 09:17:34;;;;;;;14.27;9.53;;;;;8.50;100579.00;;;;10437946;28;20568;-77
2022/11/14 09:22:58;;;;;;;14.87;9.97;;;;;8.70;100582.00;;;;10424305;28;20240;-77
2022/11/14 09:28:19;;;;;;;14.50;9.20;;;;;8.80;100586.00;;;;10443953;28;20192;-74
2022/11/14 09:33:40;;;;;;;15.20;8.37;;;;;8.90;100577.00;;;;10461175;28;20775;-76
2022/11/14 09:39:00;;;;;;;11.30;7.90;;;;;8.90;100571.00;;;;10423113;28;20289;-76
2022/11/14 09:44:37;;;;;;;13.03;8.13;;;;;9.00;100578.00;;;;10422820;28;20277;-74
2022/11/14 09:50:06;;;;;;;12.20;8.20;;;;;9.20;100566.00;;;;10423138;28;20553;-74
2022/11/14 09:55:29;;;;;;;13.03;8.60;;;;;9.30;100568.00;;;;10435778;28;20185;-76
2022/11/14 10:01:08;;;;;;;15.03;9.97;;;;;9.50;100574.00;;;;10432626;28;20210;-76
2022/11/14 10:06:34;;;;;;;16.57;11.40;;;;;9.70;100581.00;;;;10468732;28;20518;-76
2022/11/14 10:12:10;;;;;;;17.27;11.20;;;;;9.90;100578.00;;;;10455250;28;20190;-74
2022/11/14 10:18:04;;;;;;;14.40;10.83;;;;;10.10;100572.00;;;;10454845;28;20707;-74
2022/11/14 10:23:34;;;;;;;15.67;10.47;;;;;10.20;100556.00;;;;10457087;28;20209;-75
2022/11/14 10:29:23;;;;;;;15.53;11.37;;;;;10.40;100564.00;;;;10494241;28;20190;-75
2022/11/14 10:35:01;;;;;;;14.53;10.17;;;;;10.50;100560.00;;;;10494283;28;20189;-75
2022/11/14 10:40:28;;;;;;;16.07;10.73;;;;;10.60;100557.00;;;;10476232;28;20194;-75
2022/11/14 10:46:09;;;;;;;13.30;9.87;;;;;10.70;100553.00;;;;10493967;28;20198;-75
2022/11/14 10:51:54;;;;;;;18.40;11.50;;;;;10.80;100548.00;;;;10461487;28;20678;-74
2022/11/14 10:57:20;;;;;;;18.97;9.83;;;;;10.90;100548.00;;;;10478189;28;20224;-74
2022/11/14 11:02:55;;;;;;;16.57;10.33;;;;;10.80;100554.00;;;;10458739;28;20280;-74
2022/11/14 11:14:03;;;;;;;14.80;9.40;;;;;10.90;100564.00;;;;10454499;28;20200;-75
2022/11/14 11:19:25;;;;;;;13.73;9.83;;;;;11.00;100551.00;;;;10492818;28;20292;-75
2022/11/14 11:24:46;;;;;;;13.70;10.00;;;;;11.00;100557.00;;;;10433745;28;20202;-75
2022/11/14 11:30:22;;;;;;;14.13;9.53;;;;;11.10;100566.00;;;;10444503;28;20193;-75
2022/11/14 11:35:46;;;;;;;13.90;9.70;;;;;11.20;100558.00;;;;10453168;28;20193;-74
2022/11/14 11:41:13;;;;;;;20.60;11.70;;;;;11.20;100567.00;;;;10419434;28;20225;-74
2022/11/14 11:46:56;;;;;;;11.97;9.23;;;;;11.30;100560.00;;;;10438496;28;20186;-74
2022/11/14 11:52:25;;;;;;;16.77;11.30;;;;;11.30;100548.00;;;;10439228;28;20201;-74
2022/11/14 11:58:24;;;;;;;15.40;10.47;;;;;11.40;100556.00;;;;10451203;28;20684;-74
2022/11/14 12:03:50;;;;;;;15.57;11.27;;;;;11.30;100555.00;;;;10476643;28;20304;-74
2022/11/14 12:09:19;;;;;;;15.50;11.10;;;;;11.40;100555.00;;;;10440235;28;20186;-74
2022/11/14 12:15:09;;;;;;;16.53;12.87;;;;;11.40;100548.00;;;;10440892;28;20206;-75
2022/11/14 12:20:35;;;;;;;16.13;11.67;;;;;11.10;100544.00;;;;10450955;28;20622;-75
2022/11/14 12:26:00;;;;;;;18.20;12.07;;;;;10.80;100538.00;;;;10467356;28;20288;-75
2022/11/14 12:31:21;;;;;;;14.87;11.17;;;;;10.60;100540.00;;;;10464467;28;20196;-75
2022/11/14 12:36:44;;;;;;;19.77;12.40;;;;;10.40;100535.00;;;;10480909;28;20197;-75
2022/11/14 12:42:09;;;;;;;19.00;12.77;;;;;10.20;100536.00;;;;10498638;28;20200;-75
2022/11/14 12:47:29;;;;;;;19.17;12.43;;;;;10.00;100526.00;;;;10466428;28;20204;-75
2022/11/14 12:52:52;;;;;;;18.43;12.27;;;;;9.70;100533.00;;;;10438681;28;20206;-75
2022/11/14 12:58:29;;;;;;;23.23;13.03;;;;;8.90;100528.00;;;;10421664;28;20221;-74
2022/11/14 13:04:23;;;;;;;22.13;13.20;;;;;8.80;100523.00;;;;10436077;28;20191;-74
2022/11/14 13:10:02;;;;;;;24.40;13.30;;;;;8.40;100507.00;;;;10438311;28;20660;-74
2022/11/14 13:21:45;;;;;;;22.93;13.10;;;;;8.00;100510.00;;;;10420998;28;20297;-74
2022/11/14 13:27:25;;;;;;;20.63;13.40;;;;;7.80;100509.00;;;;10420979;28;20210;-74
2022/11/14 13:33:06;;;;;;;22.80;14.17;;;;;7.80;100500.00;;;;10464504;28;20201;-74
2022/11/14 13:38:42;;;;;;;26.23;16.43;;;;;7.60;100496.00;;;;10423447;28;20206;-74
2022/11/14 13:44:23;;;;;;;26.53;17.23;;;;;7.30;100497.00;;;;10432288;28;20279;-74
2022/11/14 13:49:52;;;;;;;31.23;19.03;;;;;7.30;100493.00;;;;10441315;28;20564;-74
2022/11/14 13:55:21;;;;;;;28.73;19.10;;;;;7.20;100476.00;;;;10463478;28;20274;-74
2022/11/14 14:01:21;;;;;;;23.60;15.00;;;;;7.20;100480.00;;;;10477550;28;20197;-74
2022/11/14 14:07:07;;;;;;;25.07;15.10;;;;;7.20;100464.00;;;;10476872;28;20267;-74
2022/11/14 14:12:51;;;;;;;23.13;15.20;;;;;7.10;100468.00;;;;10477560;28;20182;-74
2022/11/14 14:18:27;;;;;;;24.53;15.43;;;;;7.00;100469.00;;;;10448489;28;20213;-74
2022/11/14 14:24:14;;;;;;;23.23;14.33;;;;;7.00;100471.00;;;;10459981;28;20201;-74
2022/11/14 14:29:54;;;;;;;29.57;15.37;;;;;6.90;100457.00;;;;10462652;28;20277;-74
2022/11/14 14:35:26;;;;;;;22.87;14.50;;;;;6.80;100458.00;;;;10444746;28;20233;-74
2022/11/14 14:40:46;;;;;;;24.30;14.73;;;;;6.80;100450.00;;;;10452545;28;20202;-74
2022/11/14 14:46:07;;;;;;;23.77;14.57;;;;;6.80;100447.00;;;;10420898;28;20213;-74
2022/11/14 14:51:33;;;;;;;23.17;15.10;;;;;6.90;100442.00;;;;10434811;28;20209;-74
2022/11/14 14:57:01;;;;;;;26.17;15.00;;;;;6.90;100444.00;;;;10470967;28;20266;-74
2022/11/14 15:02:23;;;;;;;26.80;15.23;;;;;7.00;100430.00;;;;10461663;28;20190;-74
2022/11/14 15:07:45;;;;;;;26.77;17.07;;;;;7.10;100424.00;;;;10468271;28;20252;-74
2022/11/14 15:13:09;;;;;;;28.03;15.70;;;;;7.10;100415.00;;;;10478428;28;20185;-74
2022/11/14 15:18:31;;;;;;;26.13;15.57;;;;;7.00;100415.00;;;;10427959;28;20256;-74
2022/11/14 15:24:13;;;;;;;29.97;16.43;;;;;7.00;100393.00;;;;10449524;28;20208;-75
2022/11/14 15:29:34;;;;;;;25.77;15.77;;;;;7.00;100397.00;;;;10480558;28;20193;-74
2022/11/14 15:35:25;;;;;;;27.30;15.57;;;;;6.90;100395.00;;;;10481475;28;20232;-74
2022/11/14 15:41:17;;;;;;;27.43;17.53;;;;;6.90;100380.00;;;;10469113;28;20667;-74
2022/11/14 15:46:41;;;;;;;28.47;16.80;;;;;6.90;100376.00;;;;10468906;28;20551;-74
2022/11/14 15:52:02;;;;;;;31.50;16.80;;;;;6.80;100379.00;;;;10485943;28;20182;-74
2022/11/14 15:57:22;;;;;;;24.07;15.27;;;;;6.70;100387.00;;;;10468934;28;20300;-74
2022/11/14 16:02:48;;;;;;;22.67;13.83;;;;;6.70;100399.00;;;;10465948;28;20246;-74
2022/11/14 16:08:09;;;;;;;23.50;15.10;;;;;6.70;100394.00;;;;10427166;28;20198;-74
2022/11/14 16:13:30;;;;;;;19.13;13.17;;;;;6.70;100405.00;;;;10440878;28;20194;-74
2022/11/14 16:18:51;;;;;;;22.47;13.67;;;;;6.70;100397.00;;;;10443205;28;20688;-74
2022/11/14 16:24:22;;;;;;;18.47;12.80;;;;;6.80;100399.00;;;;10438847;28;20223;-74
2022/11/14 16:29:42;;;;;;;19.87;12.80;;;;;6.80;100400.00;;;;10447646;28;20268;-74
2022/11/14 16:35:05;;;;;;;18.73;12.87;;;;;6.80;100390.00;;;;10448895;28;20206;-74
2022/11/14 16:40:26;;;;;;;19.63;13.27;;;;;6.80;100391.00;;;;10437607;28;20194;-74
2022/11/14 16:45:47;;;;;;;18.73;12.90;;;;;6.90;100384.00;;;;10432427;28;20198;-74
2022/11/14 16:51:08;;;;;;;21.33;13.43;;;;;6.90;100385.00;;;;10437311;28;20228;-74
2022/11/14 16:56:48;;;;;;;21.63;14.27;;;;;6.90;100390.00;;;;10464013;28;20271;-74
2022/11/14 17:02:14;;;;;;;22.00;14.60;;;;;6.90;100392.00;;;;10435643;28;20204;-76
2022/11/14 17:07:35;;;;;;;19.37;13.47;;;;;6.90;100390.00;;;;10460147;28;20210;-76
2022/11/14 17:12:56;;;;;;;23.40;14.27;;;;;6.90;100405.00;;;;10447982;28;20866;-76
2022/11/14 17:18:17;;;;;;;20.30;13.97;;;;;6.90;100406.00;;;;10455728;28;20206;-76
2022/11/14 17:23:37;;;;;;;21.17;13.60;;;;;7.00;100409.00;;;;10421519;28;1085941;-76
2022/11/14 17:28:58;;;;;;;20.07;13.50;;;;;7.00;100405.00;;;;10447791;28;20175;-76
2022/11/14 17:34:18;;;;;;;20.63;13.50;;;;;7.00;100396.00;;;;10426994;28;20297;-76
2022/11/14 17:39:39;;;;;;;18.90;12.57;;;;;7.00;100378.00;;;;10463723;28;20197;-76
2022/11/14 17:45:00;;;;;;;19.27;12.47;;;;;7.00;100385.00;;;;10447403;28;20241;-76
2022/11/14 17:50:21;;;;;;;20.10;12.73;;;;;7.00;100386.00;;;;10465277;28;20268;-76
2022/11/14 17:55:41;;;;;;;21.10;13.27;;;;;7.00;100377.00;;;;10452725;28;20220;-76
2022/11/14 18:01:08;;;;;;;20.57;13.80;;;;;7.00;100382.00;;;;10452028;28;20198;-77
2022/11/14 18:06:29;;;;;;;21.00;13.40;;;;;7.00;100387.00;;;;10458490;28;20241;-76
2022/11/14 18:11:49;;;;;;;23.53;13.03;;;;;7.00;100393.00;;;;10425375;28;20197;-76
2022/11/14 18:17:09;;;;;;;19.73;12.33;;;;;7.10;100403.00;;;;10459327;28;20194;-76
2022/11/14 18:22:32;;;;;;;19.80;12.30;;;;;7.10;100405.00;;;;10463270;28;20268;-76
2022/11/14 18:27:53;;;;;;;22.10;12.77;;;;;7.10;100404.00;;;;10479552;28;20192;-76
2022/11/14 18:33:13;;;;;;;20.67;11.80;;;;;7.10;100413.00;;;;10424614;28;20212;-76
2022/11/14 18:38:33;;;;;;;28.53;14.50;;;;;7.20;100405.00;;;;10444460;28;20605;-75
2022/11/14 18:43:54;;;;;;;27.30;13.70;;;;;7.20;100409.00;;;;10420835;28;20251;-75
2022/11/14 18:49:15;;;;;;;30.83;15.53;;;;;7.20;100407.00;;;;10421094;28;20266;-76
2022/11/14 18:54:35;;;;;;;29.70;16.20;;;;;7.30;100402.00;;;;10434722;28;20712;-76
2022/11/14 18:59:55;;;;;;;28.87;14.93;;;;;7.30;100377.00;;;;10450568;28;20213;-75
2022/11/14 19:05:16;;;;;;;30.43;16.10;;;;;7.30;100367.00;;;;10439619;28;20209;-75
2022/11/14 19:10:36;;;;;;;32.13;15.60;;;;;7.40;100373.00;;;;10429431;28;20273;-75
2022/11/14 19:16:02;;;;;;;31.17;17.20;;;;;7.40;100363.00;;;;10443670;28;20648;-76
2022/11/14 19:21:23;;;;;;;33.97;16.73;;;;;7.50;100369.00;;;;10453824;28;20285;-76
2022/11/14 19:26:44;;;;;;;34.80;16.30;;;;;7.50;100365.00;;;;10435318;28;20536;-76
2022/11/14 19:32:04;;;;;;;31.17;17.90;;;;;7.50;100368.00;;;;10443791;28;20196;-76
2022/11/14 19:37:25;;;;;;;32.27;16.43;;;;;7.60;100368.00;;;;10431428;28;20221;-76
2022/11/14 19:43:07;;;;;;;32.90;18.13;;;;;7.70;100352.00;;;;10424980;28;20205;-76
2022/11/14 19:48:36;;;;;;;29.37;16.90;;;;;7.70;100351.00;;;;10483409;28;20193;-76
2022/11/14 19:53:58;;;;;;;32.57;17.57;;;;;7.80;100357.00;;;;10454278;28;20740;-76
2022/11/14 19:59:19;;;;;;;33.87;18.43;;;;;7.90;100340.00;;;;10452166;28;20201;-76
2022/11/14 20:04:45;;;;;;;31.70;17.77;;;;;8.00;100326.00;;;;10448803;28;20218;-76
2022/11/14 20:10:06;;;;;;;35.07;18.70;;;;;8.00;100333.00;;;;10435753;28;20196;-76
2022/11/14 20:15:28;;;;;;;30.87;17.10;;;;;8.10;100326.00;;;;10440508;28;20284;-76
2022/11/14 20:20:49;;;;;;;32.57;18.47;;;;;8.10;100314.00;;;;10454168;28;20194;-76
2022/11/14 20:26:10;;;;;;;28.03;17.00;;;;;8.20;100312.00;;;;10459192;28;20687;-76
2022/11/14 20:31:31;;;;;;;28.53;18.03;;;;;8.30;100311.00;;;;10457155;28;20194;-76
2022/11/14 20:36:51;;;;;;;29.10;17.53;;;;;8.40;100308.00;;;;10432171;28;20242;-76
2022/11/14 20:42:32;;;;;;;32.67;17.93;;;;;8.40;100304.00;;;;10449440;28;20201;-76
2022/11/14 20:47:53;;;;;;;40.30;19.73;;;;;8.50;100298.00;;;;10441311;28;20194;-76
2022/11/14 20:53:14;;;;;;;33.43;19.17;;;;;8.60;100301.00;;;;10429482;28;20186;-76
2022/11/14 20:58:34;;;;;;;30.93;17.87;;;;;8.60;100298.00;;;;10472216;28;20206;-76
2022/11/14 21:03:55;;;;;;;28.00;18.03;;;;;8.60;100291.00;;;;10437775;28;20653;-76
2022/11/14 21:09:16;;;;;;;30.47;17.03;;;;;8.60;100297.00;;;;10435711;28;20588;-76
2022/11/14 21:14:36;;;;;;;37.17;17.20;;;;;8.60;100286.00;;;;10474103;28;20194;-76
2022/11/14 21:19:57;;;;;;;39.23;19.37;;;;;8.80;100280.00;;;;10477200;28;20197;-76
2022/11/14 21:25:17;;;;;;;40.60;19.87;;;;;9.00;100289.00;;;;10476497;28;20566;-76
2022/11/14 21:30:38;;;;;;;36.03;18.43;;;;;9.20;100297.00;;;;10443668;28;20182;-76
2022/11/14 21:35:59;;;;;;;34.93;18.20;;;;;9.30;100284.00;;;;10467168;28;20194;-76
2022/11/14 21:41:40;;;;;;;34.60;19.50;;;;;9.50;100291.00;;;;10425578;28;20202;-76
2022/11/14 21:47:00;;;;;;;37.77;19.57;;;;;9.60;100280.00;;;;10452928;28;20215;-76
2022/11/14 21:52:24;;;;;;;30.20;17.17;;;;;9.60;100283.00;;;;10460846;28;20182;-76
2022/11/14 21:57:45;;;;;;;32.27;18.17;;;;;9.50;100285.00;;;;10458304;28;20204;-76
2022/11/14 22:08:44;;;;;;;31.23;18.27;;;;;9.60;100269.00;;;;10452066;28;20214;-76
2022/11/14 22:14:06;;;;;;;28.80;18.27;;;;;9.70;100275.00;;;;10438381;28;20186;-76
2022/11/14 22:19:26;;;;;;;36.00;18.83;;;;;9.70;100267.00;;;;10451950;28;20324;-76
2022/11/14 22:24:46;;;;;;;23.93;15.87;;;;;9.80;100272.00;;;;10421354;28;20202;-76
2022/11/14 22:30:08;;;;;;;31.53;17.13;;;;;9.90;100268.00;;;;10434391;28;20178;-76
2022/11/14 22:35:28;;;;;;;33.43;19.03;;;;;10.00;100274.00;;;;10461815;28;20680;-76
2022/11/14 22:40:49;;;;;;;27.33;17.47;;;;;10.00;100279.00;;;;10444628;28;20220;-75
2022/11/14 22:46:11;;;;;;;26.13;16.77;;;;;10.00;100279.00;;;;10445112;28;20190;-76
2022/11/14 22:51:31;;;;;;;26.30;16.67;;;;;10.10;100275.00;;;;10451762;28;20194;-76
2022/11/14 22:56:52;;;;;;;23.43;15.40;;;;;10.10;100277.00;;;;10451488;28;20208;-76
2022/11/14 23:02:12;;;;;;;29.90;17.87;;;;;10.20;100274.00;;;;10474745;28;20251;-76
2022/11/14 23:07:33;;;;;;;22.93;14.93;;;;;10.30;100269.00;;;;10438452;28;20228;-76
2022/11/14 23:12:53;;;;;;;23.27;15.50;;;;;10.40;100268.00;;;;10477444;28;20197;-76
2022/11/14 23:18:14;;;;;;;23.63;15.27;;;;;10.50;100263.00;;;;10492803;28;20201;-76
2022/11/14 23:23:34;;;;;;;23.93;15.10;;;;;10.50;100264.00;;;;10477669;28;20197;-76
2022/11/14 23:28:55;;;;;;;23.87;14.27;;;;;10.60;100257.00;;;;10460943;28;20190;-76
2022/11/14 23:34:15;;;;;;;21.60;14.30;;;;;10.70;100263.00;;;;10444885;28;20197;-76
2022/11/14 23:39:36;;;;;;;22.87;15.37;;;;;10.70;100262.00;;;;10460738;28;20198;-76
2022/11/14 23:44:57;;;;;;;18.13;13.63;;;;;10.80;100262.00;;;;10474102;28;20205;-76
2022/11/14 23:50:17;;;;;;;22.03;13.93;;;;;10.90;100270.00;;;;10459278;28;20197;-76
2022/11/14 23:55:38;;;;;;;20.13;15.27;;;;;11.00;100268.00;;;;10482086;28;20193;-76
